Time;durP1;ratioP1;P1;durP2;ratioP2;P2;SDS_P1;SDS_P2;PMS_P1;PMS_P2;Temp;Humidity;BMP_temperature;BMP_pressure;BME280_temperature;BME280_humidity;BME280_pressure;Samples;Min_cycle;Max_cycle;Signal;HPM_P1;HPM_P2
2023/06/30 00:01:32;;;;;;;8.17;6.33;;;23.70;95.00;;;;;;5073095;28;20819;-51
2023/06/30 00:03:59;;;;;;;7.70;6.20;;;23.70;95.00;;;;;;5073463;28;20436;-51
2023/06/30 00:06:26;;;;;;;8.50;6.00;;;23.70;95.00;;;;;;5073177;28;20441;-50
2023/06/30 00:08:52;;;;;;;8.90;6.07;;;23.70;95.00;;;;;;5072903;28;20571;-50
2023/06/30 00:11:23;;;;;;;10.70;6.40;;;23.60;95.00;;;;;;5073441;28;20804;-51
2023/06/30 00:13:51;;;;;;;7.87;6.97;;;23.70;95.10;;;;;;5073067;28;20934;-51
2023/06/30 00:16:19;;;;;;;7.50;6.83;;;23.70;95.10;;;;;;5073147;28;20483;-51
2023/06/30 00:18:45;;;;;;;10.23;8.83;;;23.70;95.20;;;;;;5072552;28;20484;-51
2023/06/30 00:21:12;;;;;;;9.43;8.53;;;23.70;95.30;;;;;;5072899;28;20455;-50
2023/06/30 00:23:39;;;;;;;9.63;7.70;;;23.60;95.40;;;;;;5072667;28;20443;-50
2023/06/30 00:26:05;;;;;;;10.60;8.87;;;23.50;95.50;;;;;;5072657;28;20428;-50
2023/06/30 00:28:32;;;;;;;13.97;11.53;;;23.60;95.70;;;;;;5071931;28;20457;-51
2023/06/30 00:30:59;;;;;;;11.80;10.67;;;23.60;95.90;;;;;;5072297;28;20568;-50
2023/06/30 00:33:27;;;;;;;14.33;10.43;;;23.60;96.00;;;;;;5054517;28;20446;-51
2023/06/30 00:35:53;;;;;;;14.23;12.73;;;23.60;96.20;;;;;;5054213;28;20957;-51
2023/06/30 00:38:20;;;;;;;16.67;13.77;;;23.20;96.30;;;;;;5071786;28;20464;-51
2023/06/30 00:40:48;;;;;;;12.57;11.30;;;23.50;96.60;;;;;;5072263;28;20426;-51
2023/06/30 00:43:16;;;;;;;13.60;12.10;;;23.50;96.80;;;;;;5072173;28;20439;-52
2023/06/30 00:45:42;;;;;;;15.03;13.27;;;23.30;97.00;;;;;;5072309;28;20448;-52
2023/06/30 00:48:09;;;;;;;16.40;13.80;;;23.40;97.60;;;;;;5071507;28;20433;-50
2023/06/30 00:50:38;;;;;;;16.97;14.20;;;23.20;98.10;;;;;;5054171;28;20886;-50
2023/06/30 00:53:05;;;;;;;17.00;15.20;;;23.30;98.60;;;;;;5072302;28;20429;-51
2023/06/30 00:55:32;;;;;;;17.53;15.73;;;23.30;99.50;;;;;;5071471;28;20773;-50
2023/06/30 00:58:00;;;;;;;17.03;15.30;;;23.20;99.60;;;;;;5053813;28;20470;-50
2023/06/30 01:00:26;;;;;;;18.53;15.03;;;23.10;99.90;;;;;;5053405;28;20460;-51
2023/06/30 01:03:01;;;;;;;20.10;16.47;;;23.00;99.90;;;;;;5053766;28;20460;-49
2023/06/30 01:05:37;;;;;;;18.80;16.33;;;23.00;99.90;;;;;;5054164;28;20457;-50
2023/06/30 01:08:13;;;;;;;17.23;15.60;;;22.90;99.90;;;;;;5054472;28;20449;-48
2023/06/30 01:10:43;;;;;;;17.13;15.43;;;22.90;99.90;;;;;;5072480;28;20492;-49
2023/06/30 01:13:10;;;;;;;17.60;15.27;;;22.60;99.90;;;;;;5072465;28;20435;-49
2023/06/30 01:15:41;;;;;;;17.13;15.43;;;22.80;99.90;;;;;;5054353;28;20543;-51
2023/06/30 01:18:11;;;;;;;25.80;15.83;;;22.70;99.90;;;;;;5072034;28;20426;-51
2023/06/30 01:20:40;;;;;;;18.60;16.60;;;22.80;99.90;;;;;;5072700;28;20932;-50
2023/06/30 01:23:14;;;;;;;19.10;16.50;;;22.80;99.90;;;;;;5054959;28;20505;-51
2023/06/30 01:25:41;;;;;;;17.80;15.50;;;22.50;99.90;;;;;;5054106;28;20455;-50
2023/06/30 01:28:09;;;;;;;17.87;16.07;;;22.70;99.90;;;;;;5071489;28;20488;-50
2023/06/30 01:30:36;;;;;;;23.50;16.43;;;22.40;99.90;;;;;;5071486;28;20476;-49
2023/06/30 01:33:03;;;;;;;18.33;16.03;;;22.50;99.90;;;;;;5054061;28;20525;-51
2023/06/30 01:35:31;;;;;;;22.27;17.60;;;22.50;99.90;;;;;;5053521;28;20454;-49
2023/06/30 01:38:01;;;;;;;21.43;18.27;;;22.20;99.90;;;;;;5053309;28;20443;-49
2023/06/30 01:40:31;;;;;;;19.13;17.23;;;22.40;99.90;;;;;;5053884;28;20478;-47
2023/06/30 01:42:58;;;;;;;20.03;17.93;;;22.60;99.90;;;;;;5053694;28;20793;-45
2023/06/30 01:45:26;;;;;;;20.40;18.20;;;22.30;99.90;;;;;;5072059;28;20443;-46
2023/06/30 01:47:54;;;;;;;18.83;16.93;;;22.30;99.90;;;;;;5071846;28;20427;-46
2023/06/30 01:50:21;;;;;;;21.33;17.53;;;22.20;99.90;;;;;;5053379;28;20478;-47
2023/06/30 01:52:47;;;;;;;19.43;17.43;;;22.20;99.90;;;;;;5071330;28;20426;-45
2023/06/30 01:55:14;;;;;;;18.47;16.53;;;22.10;99.90;;;;;;5053217;28;20446;-46
2023/06/30 01:57:42;;;;;;;19.77;16.13;;;22.10;99.90;;;;;;5071487;28;20435;-46
2023/06/30 02:00:09;;;;;;;18.47;16.57;;;22.10;99.90;;;;;;5052825;28;20462;-47
2023/06/30 02:02:39;;;;;;;19.20;17.23;;;22.00;99.90;;;;;;5071442;28;20431;-46
2023/06/30 02:05:09;;;;;;;20.40;18.03;;;21.90;99.90;;;;;;5053420;28;20450;-45
2023/06/30 02:07:36;;;;;;;20.33;18.23;;;21.90;99.90;;;;;;5073677;28;21001;-46
2023/06/30 02:10:07;;;;;;;18.10;16.17;;;21.80;99.90;;;;;;5057280;28;20558;-45
2023/06/30 02:12:35;;;;;;;19.93;17.73;;;21.80;99.90;;;;;;5058306;28;20526;-45
2023/06/30 02:15:04;;;;;;;19.07;16.57;;;21.80;99.90;;;;;;5076414;28;20491;-45
2023/06/30 02:17:32;;;;;;;19.10;17.00;;;21.70;99.90;;;;;;5058008;28;20828;-45
2023/06/30 02:19:59;;;;;;;19.20;17.20;;;21.80;99.90;;;;;;5057674;28;20475;-47
2023/06/30 02:22:26;;;;;;;19.13;17.10;;;21.70;99.90;;;;;;5076176;28;20447;-46
2023/06/30 02:24:53;;;;;;;21.70;17.97;;;21.70;99.90;;;;;;5057872;28;20456;-45
2023/06/30 02:27:22;;;;;;;19.33;17.20;;;21.70;99.90;;;;;;5058190;28;20824;-46
2023/06/30 02:29:49;;;;;;;19.77;17.47;;;21.60;99.90;;;;;;5075053;28;20481;-46
2023/06/30 02:32:17;;;;;;;24.23;18.23;;;21.60;99.90;;;;;;5075631;28;20439;-47
2023/06/30 02:34:43;;;;;;;18.50;16.60;;;21.50;99.90;;;;;;5074707;28;20951;-47
2023/06/30 02:37:10;;;;;;;19.80;17.60;;;21.50;99.90;;;;;;5074726;28;20426;-47
2023/06/30 02:39:36;;;;;;;21.27;17.33;;;21.60;99.90;;;;;;5074115;28;20951;-44
2023/06/30 02:42:03;;;;;;;20.17;17.07;;;21.60;99.90;;;;;;5074749;28;20433;-45
2023/06/30 02:44:30;;;;;;;24.83;18.10;;;21.60;99.90;;;;;;5056550;28;20543;-45
2023/06/30 02:46:57;;;;;;;20.63;17.47;;;21.60;99.90;;;;;;5056407;28;20452;-46
2023/06/30 02:49:25;;;;;;;19.30;17.27;;;21.60;99.90;;;;;;5055904;28;20472;-48
2023/06/30 02:51:51;;;;;;;18.60;16.57;;;21.60;99.90;;;;;;5056295;28;20956;-48
2023/06/30 02:54:19;;;;;;;19.87;17.43;;;21.60;99.90;;;;;;5074645;28;20469;-46
2023/06/30 02:56:45;;;;;;;21.03;18.80;;;21.70;99.90;;;;;;5056131;28;20488;-45
2023/06/30 02:59:13;;;;;;;17.47;15.77;;;21.90;99.90;;;;;;5055708;28;20555;-46
2023/06/30 03:01:40;;;;;;;18.17;16.30;;;21.60;99.90;;;;;;5056149;28;20445;-45
2023/06/30 03:04:07;;;;;;;17.90;15.63;;;21.70;99.90;;;;;;5056246;28;20902;-45
2023/06/30 03:06:37;;;;;;;21.93;18.73;;;21.70;99.90;;;;;;5056276;28;20673;-46
2023/06/30 03:09:04;;;;;;;18.77;16.83;;;21.70;99.90;;;;;;5055767;28;20480;-46
2023/06/30 03:11:32;;;;;;;18.90;17.00;;;21.60;99.90;;;;;;5055981;28;20492;-45
2023/06/30 03:13:58;;;;;;;22.27;18.50;;;21.60;99.90;;;;;;5055941;28;20448;-46
2023/06/30 03:16:30;;;;;;;18.60;16.70;;;21.60;99.90;;;;;;5055915;28;20449;-48
2023/06/30 03:18:58;;;;;;;22.00;18.23;;;21.60;99.90;;;;;;5054670;28;20564;-46
2023/06/30 03:21:25;;;;;;;19.43;17.33;;;21.70;99.90;;;;;;5055884;28;20455;-46
2023/06/30 03:23:53;;;;;;;18.57;16.30;;;21.70;99.90;;;;;;5055732;28;20482;-47
2023/06/30 03:26:20;;;;;;;20.57;16.90;;;21.70;99.90;;;;;;5055597;28;20512;-46
2023/06/30 03:28:46;;;;;;;22.57;19.47;;;21.70;99.90;;;;;;5073073;28;20498;-49
2023/06/30 03:31:14;;;;;;;20.73;17.50;;;21.70;99.90;;;;;;5055487;28;20476;-46
2023/06/30 03:33:41;;;;;;;19.50;17.10;;;21.70;99.90;;;;;;5055945;28;20453;-46
2023/06/30 03:36:09;;;;;;;18.43;16.57;;;21.70;99.90;;;;;;5073369;28;20441;-46
2023/06/30 03:38:35;;;;;;;20.83;16.83;;;21.70;99.90;;;;;;5072894;28;20468;-46
2023/06/30 03:41:03;;;;;;;18.90;16.70;;;21.80;99.90;;;;;;5073338;28;20440;-46
2023/06/30 03:43:31;;;;;;;20.70;18.50;;;21.80;99.90;;;;;;5055735;28;20441;-46
2023/06/30 03:45:59;;;;;;;18.93;16.93;;;21.80;99.90;;;;;;5055470;28;20453;-46
2023/06/30 03:48:27;;;;;;;22.33;18.10;;;21.70;99.90;;;;;;5055073;28;21013;-48
2023/06/30 03:50:54;;;;;;;18.77;16.70;;;21.70;99.90;;;;;;5055257;28;20500;-45
2023/06/30 03:53:22;;;;;;;19.47;17.40;;;21.70;99.90;;;;;;5055090;28;20922;-46
2023/06/30 03:55:48;;;;;;;19.70;16.33;;;21.80;99.90;;;;;;5073033;28;20493;-47
2023/06/30 03:58:16;;;;;;;19.30;16.47;;;21.70;99.90;;;;;;5054675;28;20842;-47
2023/06/30 04:00:43;;;;;;;20.00;17.60;;;21.80;99.90;;;;;;5054866;28;20453;-47
2023/06/30 04:03:10;;;;;;;20.17;17.97;;;21.80;99.90;;;;;;5072836;28;20439;-45
2023/06/30 04:05:37;;;;;;;18.07;16.13;;;21.80;99.90;;;;;;5072822;28;20448;-46
2023/06/30 04:08:04;;;;;;;20.57;18.37;;;21.70;99.90;;;;;;5072604;28;20437;-51
2023/06/30 04:10:30;;;;;;;20.43;17.10;;;21.70;99.90;;;;;;5072455;28;20989;-45
2023/06/30 04:12:57;;;;;;;21.90;18.20;;;21.80;99.90;;;;;;5072791;28;20437;-46
2023/06/30 04:15:25;;;;;;;19.83;17.83;;;21.80;99.90;;;;;;5072637;28;20434;-46
2023/06/30 04:17:52;;;;;;;19.57;17.40;;;21.80;99.90;;;;;;5072719;28;20448;-47
2023/06/30 04:20:18;;;;;;;20.40;17.70;;;21.80;99.90;;;;;;5072180;28;20454;-46
2023/06/30 04:22:45;;;;;;;19.90;17.80;;;21.80;99.90;;;;;;5072392;28;20471;-46
2023/06/30 04:25:11;;;;;;;20.73;16.87;;;21.90;99.90;;;;;;5072565;28;20427;-46
2023/06/30 04:27:38;;;;;;;24.03;18.10;;;21.80;99.90;;;;;;5072544;28;20483;-48
2023/06/30 04:30:07;;;;;;;20.40;17.30;;;21.90;99.90;;;;;;5071732;28;20484;-46
2023/06/30 04:32:35;;;;;;;20.27;17.90;;;21.90;99.90;;;;;;5073246;28;20477;-46
2023/06/30 04:35:01;;;;;;;22.33;17.10;;;21.90;99.90;;;;;;5072815;28;20805;-46
2023/06/30 04:37:28;;;;;;;20.77;16.90;;;22.00;99.90;;;;;;5072193;28;20926;-46
2023/06/30 04:39:56;;;;;;;20.10;17.90;;;22.10;99.90;;;;;;5071602;28;21071;-47
2023/06/30 04:42:22;;;;;;;21.10;18.37;;;22.20;99.90;;;;;;5072129;28;20434;-48
2023/06/30 04:44:49;;;;;;;18.90;16.60;;;22.30;99.90;;;;;;5072354;28;20437;-46
2023/06/30 04:47:16;;;;;;;20.50;15.50;;;22.40;99.90;;;;;;5072076;28;20434;-47
2023/06/30 04:49:44;;;;;;;21.40;16.97;;;22.40;99.90;;;;;;5071616;28;20478;-47
2023/06/30 04:52:11;;;;;;;18.23;16.00;;;22.50;99.90;;;;;;5071887;28;20477;-47
2023/06/30 04:54:37;;;;;;;19.07;17.07;;;22.70;99.90;;;;;;5071881;28;20428;-47
2023/06/30 04:57:06;;;;;;;20.80;16.40;;;22.80;99.90;;;;;;5053830;28;20941;-47
2023/06/30 04:59:32;;;;;;;18.13;16.03;;;23.00;99.90;;;;;;5071382;28;20459;-47
2023/06/30 05:02:00;;;;;;;18.30;16.40;;;23.10;99.90;;;;;;5071848;28;20428;-47
2023/06/30 05:04:26;;;;;;;21.20;17.33;;;23.20;99.90;;;;;;5071679;28;20984;-46
2023/06/30 05:06:54;;;;;;;19.43;17.43;;;23.30;99.90;;;;;;5071673;28;20433;-46
2023/06/30 05:09:23;;;;;;;19.53;16.60;;;23.40;99.90;;;;;;5071188;28;20452;-47
2023/06/30 05:11:50;;;;;;;20.43;17.67;;;23.50;99.90;;;;;;5071551;28;20491;-46
2023/06/30 05:14:16;;;;;;;21.50;18.53;;;23.60;99.90;;;;;;5071595;28;20429;-45
2023/06/30 05:16:43;;;;;;;25.03;19.47;;;23.60;99.90;;;;;;5071607;28;20507;-49
2023/06/30 05:19:09;;;;;;;20.40;17.37;;;23.60;99.90;;;;;;5071498;28;20451;-47
2023/06/30 05:21:36;;;;;;;20.70;17.80;;;23.60;99.90;;;;;;5071608;28;20445;-47
2023/06/30 05:24:05;;;;;;;22.13;18.40;;;23.70;99.90;;;;;;5071356;28;20439;-46
2023/06/30 05:26:31;;;;;;;23.47;19.37;;;23.70;99.90;;;;;;5071010;28;20957;-47
2023/06/30 05:28:58;;;;;;;22.20;19.30;;;23.70;99.90;;;;;;5071199;28;20548;-47
2023/06/30 05:31:24;;;;;;;23.30;18.30;;;23.80;99.90;;;;;;5071024;28;20469;-47
2023/06/30 05:33:51;;;;;;;21.33;17.90;;;23.90;99.90;;;;;;5071268;28;20844;-47
2023/06/30 05:36:19;;;;;;;22.17;18.30;;;24.10;99.90;;;;;;5071177;28;20516;-47
2023/06/30 05:38:46;;;;;;;18.47;16.63;;;24.20;99.90;;;;;;5070703;28;20483;-48
2023/06/30 05:41:14;;;;;;;18.80;16.77;;;24.40;99.90;;;;;;5071167;28;20430;-46
2023/06/30 05:43:40;;;;;;;20.17;18.10;;;24.50;99.90;;;;;;5071451;28;20497;-46
2023/06/30 05:46:07;;;;;;;20.07;17.97;;;24.60;99.90;;;;;;5071004;28;20434;-46
2023/06/30 05:48:34;;;;;;;20.40;18.27;;;24.70;99.90;;;;;;5070066;28;20479;-50
2023/06/30 05:51:00;;;;;;;21.10;17.60;;;24.80;99.90;;;;;;5070656;28;20903;-47
2023/06/30 05:53:27;;;;;;;19.27;16.43;;;24.90;99.90;;;;;;5071021;28;20429;-47
2023/06/30 05:55:55;;;;;;;24.37;17.40;;;25.00;99.90;;;;;;5071555;28;20445;-47
2023/06/30 05:58:24;;;;;;;21.80;19.50;;;25.20;99.90;;;;;;5070812;28;21031;-50
2023/06/30 06:00:51;;;;;;;20.07;18.00;;;25.20;99.90;;;;;;5071726;28;20434;-48
2023/06/30 06:03:18;;;;;;;21.80;19.53;;;25.20;99.90;;;;;;5053387;28;20472;-47
2023/06/30 06:05:44;;;;;;;20.73;18.43;;;25.20;99.90;;;;;;5071464;28;20437;-47
2023/06/30 06:08:11;;;;;;;20.23;18.03;;;25.30;99.90;;;;;;5070546;28;20922;-47
2023/06/30 06:10:38;;;;;;;18.47;15.87;;;25.40;99.90;;;;;;5071058;28;20812;-46
2023/06/30 06:13:04;;;;;;;22.27;18.10;;;25.50;99.90;;;;;;5071000;28;20441;-48
2023/06/30 06:15:32;;;;;;;21.57;17.13;;;25.60;99.90;;;;;;5071140;28;20445;-47
2023/06/30 06:17:59;;;;;;;20.00;17.77;;;25.60;99.90;;;;;;5071193;28;20432;-49
2023/06/30 06:20:25;;;;;;;19.10;16.50;;;25.70;99.90;;;;;;5070725;28;20799;-47
2023/06/30 06:22:52;;;;;;;20.30;17.43;;;25.40;99.90;;;;;;5071135;28;20426;-46
2023/06/30 06:25:19;;;;;;;20.13;17.50;;;25.60;99.90;;;;;;5071615;28;20433;-48
2023/06/30 06:27:45;;;;;;;16.93;14.80;;;25.70;99.90;;;;;;5071101;28;20436;-48
2023/06/30 06:30:13;;;;;;;19.30;16.03;;;25.60;99.90;;;;;;5070508;28;20461;-47
2023/06/30 06:32:41;;;;;;;16.30;14.63;;;25.50;99.90;;;;;;5071467;28;20480;-47
2023/06/30 06:35:08;;;;;;;20.67;18.30;;;25.50;99.90;;;;;;5072411;28;20437;-45
2023/06/30 06:37:34;;;;;;;19.37;16.30;;;25.40;99.80;;;;;;5072582;28;20440;-46
2023/06/30 06:40:01;;;;;;;17.97;15.23;;;25.40;99.80;;;;;;5072391;28;20465;-49
2023/06/30 06:42:28;;;;;;;17.93;14.73;;;25.40;99.90;;;;;;5073756;28;20437;-47
2023/06/30 06:44:55;;;;;;;17.43;14.50;;;25.40;99.60;;;;;;5053947;28;20525;-46
2023/06/30 06:47:59;;;;;;;18.00;16.10;;;25.40;99.20;;;;;;5073405;28;20439;-47
2023/06/30 06:50:28;;;;;;;17.73;15.83;;;25.40;98.70;;;;;;5054496;28;20446;-47
2023/06/30 06:52:55;;;;;;;18.47;15.57;;;25.30;98.70;;;;;;5053850;28;20465;-47
2023/06/30 06:55:22;;;;;;;16.50;14.90;;;25.40;98.50;;;;;;5074596;28;20528;-49
2023/06/30 06:57:51;;;;;;;16.83;15.13;;;25.40;98.50;;;;;;5075016;28;20426;-46
2023/06/30 07:00:18;;;;;;;18.70;16.50;;;25.40;98.30;;;;;;5056701;28;20526;-47
2023/06/30 07:02:45;;;;;;;17.03;15.30;;;25.30;98.20;;;;;;5074280;28;20430;-46
2023/06/30 07:05:12;;;;;;;17.70;15.10;;;25.30;98.40;;;;;;5056284;28;20556;-47
2023/06/30 07:07:40;;;;;;;19.00;17.00;;;25.20;98.70;;;;;;5074237;28;20440;-46
2023/06/30 07:10:08;;;;;;;22.70;18.07;;;25.20;98.90;;;;;;5073891;28;20982;-47
2023/06/30 07:12:35;;;;;;;18.60;16.60;;;25.00;99.10;;;;;;5074060;28;20477;-47
2023/06/30 07:15:03;;;;;;;18.20;15.93;;;24.90;99.10;;;;;;5055855;28;20445;-47
2023/06/30 07:17:30;;;;;;;19.43;15.30;;;24.90;99.20;;;;;;5073883;28;20903;-47
2023/06/30 07:19:57;;;;;;;19.40;17.40;;;24.80;99.00;;;;;;5055235;28;20455;-46
2023/06/30 07:22:26;;;;;;;19.73;15.07;;;24.70;98.90;;;;;;5055593;28;20783;-47
2023/06/30 07:24:55;;;;;;;16.50;14.80;;;24.60;98.90;;;;;;5073422;28;20458;-47
2023/06/30 07:27:22;;;;;;;19.37;17.30;;;24.60;99.10;;;;;;5073330;28;20540;-46
2023/06/30 07:29:52;;;;;;;17.43;15.53;;;24.50;99.30;;;;;;5072692;28;20524;-46
2023/06/30 07:32:19;;;;;;;18.27;15.83;;;24.50;99.10;;;;;;5073199;28;20474;-47
2023/06/30 07:34:46;;;;;;;16.07;14.37;;;24.40;98.90;;;;;;5073258;28;20793;-48
2023/06/30 07:37:13;;;;;;;16.30;14.57;;;24.40;98.80;;;;;;5055413;28;20892;-49
2023/06/30 07:39:40;;;;;;;20.93;17.83;;;24.50;99.00;;;;;;5055157;28;20525;-50
2023/06/30 07:42:09;;;;;;;17.60;15.07;;;24.50;99.00;;;;;;5072933;28;20458;-50
2023/06/30 07:44:36;;;;;;;17.90;16.00;;;24.50;99.10;;;;;;5073034;28;20521;-50
2023/06/30 07:47:03;;;;;;;17.40;14.67;;;24.10;98.80;;;;;;5054818;28;20445;-50
2023/06/30 07:49:30;;;;;;;22.60;16.40;;;24.50;99.00;;;;;;5054563;28;20559;-49
2023/06/30 07:51:57;;;;;;;17.30;15.60;;;24.50;99.10;;;;;;5073171;28;20577;-50
2023/06/30 07:54:24;;;;;;;17.17;15.37;;;24.50;99.30;;;;;;5073300;28;20429;-51
2023/06/30 07:56:51;;;;;;;16.90;15.10;;;24.50;99.60;;;;;;5072900;28;20457;-49
2023/06/30 07:59:19;;;;;;;17.70;14.63;;;24.50;99.80;;;;;;5072277;28;20451;-49
2023/06/30 08:01:46;;;;;;;15.23;13.63;;;24.40;99.90;;;;;;5072398;28;21006;-49
2023/06/30 08:04:13;;;;;;;17.43;15.53;;;24.30;99.90;;;;;;5054680;28;20451;-49
2023/06/30 08:06:40;;;;;;;19.40;14.40;;;24.30;99.90;;;;;;5072303;28;20426;-49
2023/06/30 08:09:07;;;;;;;17.50;15.50;;;24.30;99.90;;;;;;5071586;28;20445;-49
2023/06/30 08:11:34;;;;;;;16.60;14.60;;;24.30;99.90;;;;;;5072438;28;20622;-49
2023/06/30 08:14:02;;;;;;;18.33;15.07;;;24.20;99.90;;;;;;5072667;28;20465;-49
2023/06/30 08:16:30;;;;;;;17.97;16.00;;;24.20;99.90;;;;;;5071980;28;20457;-49
2023/06/30 08:18:57;;;;;;;17.10;14.90;;;24.20;99.90;;;;;;5071818;28;20482;-50
2023/06/30 08:21:24;;;;;;;16.80;14.07;;;24.20;99.90;;;;;;5072290;28;20449;-50
2023/06/30 08:23:51;;;;;;;17.27;14.40;;;24.20;99.90;;;;;;5072062;28;20443;-49
2023/06/30 08:26:18;;;;;;;17.33;14.33;;;24.10;99.90;;;;;;5072032;28;20501;-49
2023/06/30 08:28:45;;;;;;;16.57;14.70;;;24.20;99.90;;;;;;5051303;28;20504;-49
2023/06/30 08:31:12;;;;;;;16.23;14.53;;;24.30;99.90;;;;;;5071358;28;20445;-49
2023/06/30 08:33:41;;;;;;;19.40;17.20;;;24.30;99.90;;;;;;5053881;28;20441;-48
2023/06/30 08:36:08;;;;;;;17.50;14.60;;;24.40;99.90;;;;;;5072222;28;20437;-49
2023/06/30 08:38:39;;;;;;;17.90;14.87;;;24.40;99.90;;;;;;5071129;28;20504;-50
2023/06/30 08:41:09;;;;;;;15.43;13.80;;;24.50;99.90;;;;;;5072049;28;20433;-50
2023/06/30 08:43:39;;;;;;;15.97;14.37;;;24.60;99.90;;;;;;5054940;28;20835;-50
2023/06/30 08:46:09;;;;;;;16.97;14.50;;;24.70;99.90;;;;;;5053478;28;20493;-49
2023/06/30 08:48:37;;;;;;;17.07;14.40;;;24.70;99.90;;;;;;5064685;28;20458;-49
2023/06/30 08:51:06;;;;;;;17.93;16.13;;;24.80;99.90;;;;;;5033223;28;20454;-50
2023/06/30 08:53:33;;;;;;;19.77;15.70;;;24.90;99.90;;;;;;5033024;28;20482;-50
2023/06/30 08:56:00;;;;;;;18.30;14.77;;;25.10;99.90;;;;;;5034049;28;20535;-50
2023/06/30 08:58:27;;;;;;;18.73;16.00;;;25.20;99.60;;;;;;5049843;28;20999;-51
2023/06/30 09:00:55;;;;;;;17.33;15.43;;;25.40;99.40;;;;;;5033891;28;20812;-49
2023/06/30 09:03:23;;;;;;;18.10;16.20;;;24.70;98.70;;;;;;5051740;28;20434;-49
2023/06/30 09:05:55;;;;;;;20.70;16.03;;;25.60;98.80;;;;;;5033490;28;20451;-50
2023/06/30 09:08:27;;;;;;;16.17;14.43;;;25.70;98.60;;;;;;5051342;28;20446;-50
2023/06/30 09:10:56;;;;;;;17.50;15.20;;;25.80;98.50;;;;;;5051469;28;20446;-50
2023/06/30 09:13:24;;;;;;;16.43;14.73;;;25.90;98.40;;;;;;5051269;28;21064;-49
2023/06/30 09:15:54;;;;;;;18.07;15.77;;;25.90;98.20;;;;;;5051443;28;20427;-50
2023/06/30 09:18:22;;;;;;;17.80;16.00;;;26.00;98.20;;;;;;5050946;28;20982;-50
2023/06/30 09:20:49;;;;;;;18.80;16.27;;;26.00;98.10;;;;;;5033595;28;20687;-49
2023/06/30 09:23:16;;;;;;;16.53;14.77;;;26.00;98.00;;;;;;5050923;28;20437;-49
2023/06/30 09:25:44;;;;;;;17.60;15.60;;;25.90;98.40;;;;;;5051584;28;20745;-49
2023/06/30 09:28:14;;;;;;;17.43;15.03;;;25.80;98.20;;;;;;5051337;28;20431;-49
2023/06/30 09:30:45;;;;;;;20.03;15.77;;;25.70;98.50;;;;;;5033541;28;20535;-50
2023/06/30 09:33:15;;;;;;;19.60;16.47;;;25.60;98.60;;;;;;5051356;28;20470;-49
2023/06/30 09:35:44;;;;;;;24.43;17.23;;;25.50;98.90;;;;;;5051217;28;20425;-49
2023/06/30 09:38:12;;;;;;;22.57;17.47;;;25.40;99.10;;;;;;5032668;28;20490;-49
2023/06/30 09:40:42;;;;;;;21.43;17.83;;;25.40;99.20;;;;;;5050881;28;20513;-49
2023/06/30 09:43:17;;;;;;;22.63;17.63;;;25.50;99.20;;;;;;5051228;28;20592;-49
2023/06/30 09:45:45;;;;;;;21.63;18.57;;;25.50;99.10;;;;;;5051154;28;20424;-48
2023/06/30 09:48:14;;;;;;;21.50;17.57;;;25.50;99.30;;;;;;5050434;28;20419;-49
2023/06/30 09:50:43;;;;;;;19.43;17.43;;;25.40;99.30;;;;;;5050853;28;20441;-49
2023/06/30 09:53:10;;;;;;;22.70;19.53;;;25.40;99.30;;;;;;5049409;28;20475;-49
2023/06/30 09:55:47;;;;;;;19.97;17.23;;;25.40;99.50;;;;;;5050668;28;20442;-50
2023/06/30 09:58:15;;;;;;;21.57;19.27;;;25.40;99.70;;;;;;5050235;28;20457;-49
2023/06/30 10:00:42;;;;;;;23.43;20.57;;;25.30;99.90;;;;;;5051113;28;20439;-50
2023/06/30 10:03:15;;;;;;;23.80;20.13;;;25.20;99.90;;;;;;5032570;28;20447;-50
2023/06/30 10:05:42;;;;;;;22.37;20.07;;;25.10;99.90;;;;;;5050676;28;20435;-50
2023/06/30 10:08:11;;;;;;;26.47;21.77;;;25.10;99.90;;;;;;5032537;28;20496;-50
2023/06/30 10:10:37;;;;;;;27.07;23.40;;;25.10;99.90;;;;;;5050792;28;20423;-50
2023/06/30 10:13:05;;;;;;;24.20;21.70;;;25.00;99.90;;;;;;5032408;28;20478;-50
2023/06/30 10:15:33;;;;;;;23.93;21.23;;;24.90;99.90;;;;;;5032762;28;20458;-50
2023/06/30 10:18:03;;;;;;;26.80;23.63;;;24.60;99.90;;;;;;5050690;28;20442;-49
2023/06/30 10:20:31;;;;;;;30.20;24.10;;;24.30;99.90;;;;;;5049070;28;20842;-50
2023/06/30 10:23:02;;;;;;;29.50;26.10;;;22.90;99.90;;;;;;5050125;28;20504;-49
2023/06/30 10:25:31;;;;;;;30.13;25.87;;;24.00;99.90;;;;;;5050352;28;20454;-49
2023/06/30 10:27:58;;;;;;;29.80;25.90;;;24.00;99.90;;;;;;5033502;28;20456;-49
2023/06/30 10:30:25;;;;;;;30.30;26.07;;;24.00;99.90;;;;;;5035953;28;20537;-49
2023/06/30 10:32:54;;;;;;;30.90;25.43;;;24.00;99.90;;;;;;5054122;28;21065;-49
2023/06/30 10:35:22;;;;;;;27.43;24.53;;;24.00;99.90;;;;;;5036893;28;20544;-50
2023/06/30 10:37:49;;;;;;;30.70;26.60;;;24.10;99.90;;;;;;5036434;28;20445;-50
2023/06/30 10:40:26;;;;;;;28.60;25.60;;;24.20;99.90;;;;;;5053719;28;20487;-49
2023/06/30 10:42:55;;;;;;;28.33;25.13;;;24.30;99.90;;;;;;5052325;28;20964;-50
2023/06/30 10:45:28;;;;;;;29.87;25.10;;;24.20;99.90;;;;;;5054412;28;20450;-50
2023/06/30 10:47:57;;;;;;;30.60;25.40;;;24.30;99.90;;;;;;5054265;28;20430;-49
2023/06/30 10:50:24;;;;;;;31.53;25.30;;;24.30;99.90;;;;;;5035598;28;20551;-50
2023/06/30 10:52:53;;;;;;;29.03;23.60;;;24.20;99.90;;;;;;5036075;28;20487;-50
2023/06/30 10:55:22;;;;;;;24.80;22.10;;;24.10;99.90;;;;;;5054030;28;20457;-49
2023/06/30 10:57:53;;;;;;;25.63;21.97;;;24.30;99.90;;;;;;5053917;28;20448;-49
2023/06/30 11:00:24;;;;;;;25.30;21.87;;;23.90;99.90;;;;;;5053088;28;20457;-49
2023/06/30 11:02:57;;;;;;;26.90;21.30;;;23.80;99.90;;;;;;5035939;28;20542;-49
2023/06/30 11:05:25;;;;;;;23.67;21.07;;;23.70;99.90;;;;;;5035888;28;20455;-49
2023/06/30 11:07:54;;;;;;;27.90;23.97;;;23.60;99.90;;;;;;5053573;28;20496;-49
2023/06/30 11:10:37;;;;;;;25.50;22.10;;;23.60;99.90;;;;;;5053373;28;20450;-51
2023/06/30 11:13:05;;;;;;;24.33;21.73;;;23.60;99.90;;;;;;5053303;28;20827;-50
2023/06/30 11:15:37;;;;;;;24.73;22.13;;;23.50;99.90;;;;;;5053522;28;20467;-51
2023/06/30 11:18:10;;;;;;;26.87;21.50;;;23.40;99.90;;;;;;5053302;28;20608;-50
2023/06/30 11:20:37;;;;;;;29.73;24.53;;;23.30;99.90;;;;;;5053613;28;20439;-49
2023/06/30 11:23:05;;;;;;;26.73;23.83;;;23.30;99.90;;;;;;5053342;28;20527;-50
2023/06/30 11:25:34;;;;;;;24.77;22.17;;;23.40;99.90;;;;;;5053432;28;20444;-50
2023/06/30 11:28:04;;;;;;;25.30;21.77;;;23.30;99.90;;;;;;5035306;28;20452;-49
2023/06/30 11:30:38;;;;;;;28.53;23.40;;;23.30;99.90;;;;;;5053756;28;20430;-49
2023/06/30 11:33:08;;;;;;;26.63;23.70;;;23.40;99.90;;;;;;5035439;28;20480;-50
2023/06/30 11:35:36;;;;;;;26.07;23.20;;;23.30;99.90;;;;;;5053441;28;20520;-49
2023/06/30 11:38:03;;;;;;;26.77;22.73;;;23.30;99.90;;;;;;5053428;28;20807;-49
2023/06/30 11:40:30;;;;;;;27.33;24.30;;;23.30;99.90;;;;;;5052042;28;20566;-50
2023/06/30 11:42:57;;;;;;;25.87;22.87;;;23.30;99.90;;;;;;5035116;28;20553;-49
2023/06/30 11:45:28;;;;;;;26.70;23.17;;;23.30;99.90;;;;;;5053104;28;20473;-49
2023/06/30 11:47:56;;;;;;;28.27;23.87;;;23.30;99.90;;;;;;5034931;28;20459;-50
2023/06/30 11:50:26;;;;;;;27.73;24.77;;;23.30;99.90;;;;;;5035109;28;20458;-49
2023/06/30 11:52:53;;;;;;;26.07;23.37;;;23.40;99.90;;;;;;5053663;28;20502;-48
2023/06/30 11:55:22;;;;;;;28.17;23.70;;;23.40;99.90;;;;;;5054073;28;20520;-50
2023/06/30 11:57:50;;;;;;;27.17;24.20;;;23.50;99.90;;;;;;5053674;28;20529;-48
2023/06/30 12:00:19;;;;;;;29.33;23.33;;;23.60;99.90;;;;;;5035339;28;20473;-49
2023/06/30 12:02:58;;;;;;;28.60;24.03;;;23.70;99.90;;;;;;5054189;28;20419;-49
2023/06/30 12:05:28;;;;;;;27.70;23.20;;;23.80;99.90;;;;;;5035084;28;20514;-49
2023/06/30 12:07:56;;;;;;;26.80;23.40;;;23.90;99.90;;;;;;5034615;28;20466;-49
2023/06/30 12:10:37;;;;;;;30.30;23.47;;;24.10;99.90;;;;;;5052665;28;20553;-49
2023/06/30 12:13:07;;;;;;;27.33;23.43;;;24.10;99.90;;;;;;5052509;28;20522;-50
2023/06/30 12:15:35;;;;;;;23.17;19.40;;;24.40;99.90;;;;;;5052697;28;20488;-49
2023/06/30 12:18:04;;;;;;;15.63;14.03;;;23.80;99.90;;;;;;5034054;28;20453;-50
2023/06/30 12:20:34;;;;;;;11.00;9.80;;;23.70;99.90;;;;;;5052097;28;20433;-50
2023/06/30 12:23:03;;;;;;;13.40;8.70;;;23.30;99.90;;;;;;5052768;28;20523;-49
2023/06/30 12:25:31;;;;;;;11.07;8.73;;;23.10;99.90;;;;;;5052264;28;20961;-50
2023/06/30 12:27:58;;;;;;;9.57;8.40;;;23.00;99.90;;;;;;5052978;28;20449;-50
2023/06/30 12:30:28;;;;;;;8.27;7.47;;;23.50;99.90;;;;;;5051865;28;20491;-50
2023/06/30 12:32:57;;;;;;;12.20;7.83;;;22.90;99.90;;;;;;5052048;28;20504;-50